Archdale, North Carolina
Current Conditions -  °F | °C
As of 12:13 PM on Wednesday 26 Nov 2014 (Local Time) from KGSO Reporting Station
Light Rain Light Rain  
Wind Chill: 31°   Ceiling: 1000
Heat Index: 39°   Visibility: 7mi
Dew Point: 37°   Wind: 14mph
Humidity: 93%   Direction: 330°NNW
Pressure: 29.98"   Gusts: 20mph
Location:  35.9136°N, 79.9465°W
Report Text: KGSO 261713Z 33012G17KT 7SM -RA BKN010 OVC022 04/03 A2998 RMK AO2 P0000
Loading
Personal Weather Stations






























Interactive Weather Map New forecast layout! Learn more

10-Day Weather Forecast

Advertisements
Track Severe Weather on mobile